Time;durP1;ratioP1;P1;durP2;ratioP2;P2;SDS_P1;SDS_P2;PMS_P1;PMS_P2;Temp;Humidity;BMP_temperature;BMP_pressure;BME280_temperature;BME280_humidity;BME280_pressure;Samples;Min_cycle;Max_cycle;Signal;HPM_P1;HPM_P2
2023/12/07 00:00:25;;;;;;;28.70;25.63;;;;;;;-0.96;100.00;101923.59;5052905;28;20473;-78
2023/12/07 00:02:50;;;;;;;29.85;25.83;;;;;;;-1.00;100.00;101921.06;5051472;28;20028;-79
2023/12/07 00:05:16;;;;;;;28.98;25.95;;;;;;;-0.99;100.00;101912.44;5051484;28;20020;-78
2023/12/07 00:07:41;;;;;;;29.70;26.55;;;;;;;-0.99;100.00;101917.59;5043011;28;20033;-78
2023/12/07 00:10:07;;;;;;;29.08;26.15;;;;;;;-0.99;100.00;101917.59;5050058;28;20505;-78
2023/12/07 00:12:32;;;;;;;30.10;26.90;;;;;;;-1.00;100.00;101910.72;5051156;28;20021;-78
2023/12/07 00:15:02;;;;;;;29.83;26.92;;;;;;;-1.06;100.00;101915.97;5049894;28;20044;-78
2023/12/07 00:17:28;;;;;;;29.23;26.25;;;;;;;-1.06;100.00;101903.91;5050469;28;20193;-78
2023/12/07 00:19:53;;;;;;;30.65;27.38;;;;;;;-1.05;100.00;101902.19;5051422;28;20086;-78
2023/12/07 00:22:20;;;;;;;33.65;29.38;;;;;;;-1.06;100.00;101900.47;5048394;28;20115;-79
2023/12/07 00:24:45;;;;;;;34.80;30.52;;;;;;;-1.00;100.00;101910.72;5048264;28;20413;-79
2023/12/07 00:27:11;;;;;;;33.85;30.25;;;;;;;-1.04;100.00;101901.31;5040782;28;20033;-79
2023/12/07 00:29:37;;;;;;;35.63;31.50;;;;;;;-1.06;100.00;101905.63;5047684;28;20033;-79
2023/12/07 00:32:04;;;;;;;36.30;32.47;;;;;;;-0.91;100.00;101907.19;5047162;28;20039;-79
2023/12/07 00:34:29;;;;;;;36.28;32.50;;;;;;;-0.96;100.00;101912.41;5050990;28;20112;-79
2023/12/07 00:36:54;;;;;;;35.38;31.27;;;;;;;-1.07;100.00;101914.25;5050416;28;20112;-79
2023/12/07 00:39:20;;;;;;;32.28;28.83;;;;;;;-1.08;100.00;101913.38;5050255;28;20032;-79
2023/12/07 00:41:47;;;;;;;32.38;28.98;;;;;;;-1.18;100.00;101901.44;5052167;28;20048;-79
2023/12/07 00:44:13;;;;;;;35.42;31.23;;;;;;;-1.20;100.00;101907.44;5045067;28;20097;-79
2023/12/07 00:46:39;;;;;;;33.67;30.08;;;;;;;-1.14;100.00;101907.44;5043436;28;20068;-78
2023/12/07 00:49:05;;;;;;;33.78;29.85;;;;;;;-1.17;100.00;101902.28;5045966;28;20059;-78
2023/12/07 00:51:30;;;;;;;37.15;32.60;;;;;;;-1.11;100.00;101894.50;5047445;28;20021;-78
2023/12/07 00:53:55;;;;;;;36.42;32.42;;;;;;;-1.15;100.00;101895.38;5050571;28;20389;-79
2023/12/07 00:56:21;;;;;;;35.63;31.83;;;;;;;-1.14;100.00;101899.69;5061219;28;20366;-79
2023/12/07 00:58:46;;;;;;;36.33;32.35;;;;;;;-1.12;100.00;101900.53;5071718;28;20032;-79
2023/12/07 01:01:12;;;;;;;36.38;32.65;;;;;;;-1.16;100.00;101898.84;5051751;28;20100;-78
2023/12/07 01:03:40;;;;;;;38.28;34.33;;;;;;;-1.10;100.00;101903.94;5042792;28;20562;-78
2023/12/07 01:06:06;;;;;;;38.28;33.20;;;;;;;-1.20;100.00;101913.50;5030482;28;20029;-78
2023/12/07 01:08:31;;;;;;;41.03;34.47;;;;;;;-1.21;100.00;101905.75;5050287;28;20032;-78
2023/12/07 01:10:57;;;;;;;38.58;34.33;;;;;;;-1.16;100.00;101914.34;5050966;28;20459;-78
2023/12/07 01:13:23;;;;;;;39.15;35.08;;;;;;;-1.13;100.00;101920.31;5048392;28;20032;-78
2023/12/07 01:15:49;;;;;;;40.67;35.45;;;;;;;-1.12;100.00;101916.00;5049574;28;20098;-79
2023/12/07 01:18:14;;;;;;;41.35;36.60;;;;;;;-1.12;100.00;101921.19;5049018;28;20480;-78
2023/12/07 01:20:39;;;;;;;40.63;36.28;;;;;;;-1.09;100.00;101923.72;5047507;28;23382;-78
2023/12/07 01:23:05;;;;;;;42.53;37.05;;;;;;;-1.09;100.00;101921.16;5046944;28;20114;-78
2023/12/07 01:25:31;;;;;;;46.50;38.35;;;;;;;-1.08;100.00;101912.53;5048335;28;20065;-78
2023/12/07 01:27:59;;;;;;;21.33;11.85;;;;;;;-1.00;100.00;101921.06;5047294;28;20108;-79
2023/12/07 01:30:25;;;;;;;20.85;10.57;;;;;;;-0.99;100.00;101928.78;5035668;28;20037;-78
2023/12/07 01:32:50;;;;;;;20.70;10.85;;;;;;;-0.95;100.00;101924.47;5047734;28;20108;-78
2023/12/07 01:35:16;;;;;;;45.85;37.22;;;;;;;-1.03;100.00;101915.94;5047433;28;20033;-78
2023/12/07 01:37:41;;;;;;;43.53;37.70;;;;;;;-1.04;100.00;101919.38;5049044;28;20035;-78
2023/12/07 01:40:10;;;;;;;46.85;37.78;;;;;;;-1.04;100.00;101915.06;5047202;28;20075;-77
2023/12/07 01:42:38;;;;;;;49.38;39.92;;;;;;;-0.98;100.00;101915.00;5047662;28;20033;-78
2023/12/07 01:45:05;;;;;;;49.38;41.53;;;;;;;-0.88;100.00;101920.94;5049628;28;20055;-78
2023/12/07 01:47:31;;;;;;;56.25;42.83;;;;;;;-0.90;100.00;101916.66;5046082;28;20028;-78
2023/12/07 01:50:00;;;;;;;60.60;43.70;;;;;;;-0.87;100.00;101924.38;5031159;28;20124;-78
2023/12/07 01:52:28;;;;;;;129.05;50.45;;;;;;;-0.94;100.00;101918.41;5030547;28;20082;-78
2023/12/07 01:54:54;;;;;;;63.17;44.17;;;;;;;-0.92;100.00;101911.50;5029812;28;20029;-78
2023/12/07 01:57:20;;;;;;;73.90;44.15;;;;;;;-0.87;100.00;101920.06;5029221;28;20048;-78
2023/12/07 01:59:45;;;;;;;64.50;43.50;;;;;;;-0.88;100.00;101920.94;5052756;28;20029;-79
2023/12/07 02:02:11;;;;;;;73.53;44.38;;;;;;;-0.88;100.00;101925.25;5047601;28;20017;-79
2023/12/07 02:04:36;;;;;;;219.13;54.15;;;;;;;-0.90;100.00;101922.69;5034757;28;20025;-79
2023/12/07 02:07:03;;;;;;;160.57;47.85;;;;;;;-0.83;100.00;101924.34;5030917;28;20032;-78
2023/12/07 02:09:29;;;;;;;105.25;46.42;;;;;;;-0.81;100.00;101916.56;5030542;28;20122;-78
2023/12/07 02:11:54;;;;;;;295.42;57.40;;;;;;;-0.79;100.00;101917.44;5035851;28;20120;-78
2023/12/07 02:14:20;;;;;;;226.45;51.83;;;;;;;-0.76;100.00;101922.56;5045673;28;20032;-78
2023/12/07 02:17:01;;;;;;;112.78;44.20;;;;;;;-0.73;100.00;101931.16;5048714;28;20036;-78
2023/12/07 02:19:32;;;;;;;249.75;56.85;;;;;;;-0.76;100.00;101925.16;5038962;28;20048;-79
2023/12/07 02:22:08;;;;;;;124.40;50.08;;;;;;;-0.76;100.00;101926.00;5044854;28;20029;-78
2023/12/07 02:24:35;;;;;;;162.90;51.28;;;;;;;-0.75;100.00;101932.03;5048298;28;20031;-77
2023/12/07 02:27:01;;;;;;;72.45;43.45;;;;;;;-0.72;100.00;101932.84;5048212;28;20031;-79
2023/12/07 02:29:26;;;;;;;60.42;40.53;;;;;;;-0.67;100.00;101933.66;5047235;28;20021;-78
2023/12/07 02:31:51;;;;;;;229.55;57.67;;;;;;;-0.74;100.00;101937.19;5048108;28;20025;-79
2023/12/07 02:34:17;;;;;;;190.35;49.72;;;;;;;-0.72;100.00;101939.75;5035855;28;20393;-79
2023/12/07 02:36:44;;;;;;;159.95;47.85;;;;;;;-0.72;100.00;101943.19;5045132;28;20033;-78
2023/12/07 02:39:12;;;;;;;160.70;49.80;;;;;;;-0.73;100.00;101935.47;5043061;28;20025;-78
2023/12/07 02:41:39;;;;;;;160.52;46.00;;;;;;;-0.73;100.00;101931.16;5056464;28;20020;-79
2023/12/07 02:44:05;;;;;;;241.55;55.90;;;;;;;-0.77;100.00;101929.47;5046201;28;20119;-77
2023/12/07 02:46:30;;;;;;;145.57;47.30;;;;;;;-0.75;100.00;101932.91;5046711;28;20108;-79
2023/12/07 02:49:00;;;;;;;163.25;49.63;;;;;;;-0.76;100.00;101928.59;5046465;28;20025;-78
2023/12/07 02:51:25;;;;;;;92.03;40.47;;;;;;;-0.71;100.00;101924.22;5048401;28;20683;-78
2023/12/07 02:53:50;;;;;;;143.57;45.05;;;;;;;-0.70;100.00;101931.13;5047929;28;20074;-78
2023/12/07 02:56:16;;;;;;;110.78;44.35;;;;;;;-0.69;100.00;101929.38;5046678;28;20036;-78
2023/12/07 02:58:41;;;;;;;287.17;61.53;;;;;;;-0.74;100.00;101934.59;5040000;28;20029;-78
2023/12/07 03:01:07;;;;;;;199.32;52.70;;;;;;;-0.72;100.00;101932.84;5049314;28;20489;-78
2023/12/07 03:03:33;;;;;;;173.68;47.60;;;;;;;-0.73;100.00;101931.16;5045351;28;20028;-79
2023/12/07 03:05:58;;;;;;;255.65;59.45;;;;;;;-0.74;100.00;101934.59;5045608;28;20029;-78
2023/12/07 03:08:24;;;;;;;110.30;44.80;;;;;;;-0.69;100.00;101935.41;5045451;28;20048;-78
2023/12/07 03:10:49;;;;;;;128.70;43.75;;;;;;;-0.67;100.00;101936.25;5045751;28;20053;-78
2023/12/07 03:13:14;;;;;;;145.93;44.58;;;;;;;-0.68;100.00;101929.38;5058181;28;20484;-79
2023/12/07 03:15:40;;;;;;;280.60;51.08;;;;;;;-0.69;100.00;101943.16;5053692;28;20043;-78
2023/12/07 03:18:05;;;;;;;355.67;65.55;;;;;;;-0.76;100.00;101936.34;5051495;28;20451;-78
2023/12/07 03:20:31;;;;;;;276.88;55.38;;;;;;;-0.79;100.00;101931.22;5046452;28;20358;-77
2023/12/07 03:22:56;;;;;;;160.75;46.30;;;;;;;-0.76;100.00;101936.34;5046093;28;20045;-78
2023/12/07 03:25:22;;;;;;;123.50;41.70;;;;;;;-0.73;100.00;101935.47;5046175;28;20017;-79
2023/12/07 03:27:47;;;;;;;123.32;44.80;;;;;;;-0.73;100.00;101946.66;5047004;28;20580;-78
2023/12/07 03:30:13;;;;;;;274.05;53.38;;;;;;;-0.72;100.00;101948.38;5045262;28;20021;-79
2023/12/07 03:32:38;;;;;;;117.72;41.30;;;;;;;-0.71;100.00;101934.56;5049991;28;20111;-79
2023/12/07 03:35:04;;;;;;;327.98;57.95;;;;;;;-0.78;100.00;101927.75;5048540;28;20389;-79
2023/12/07 03:37:29;;;;;;;89.25;42.10;;;;;;;-0.72;100.00;101943.19;5050345;28;20059;-79
2023/12/07 03:39:55;;;;;;;206.50;48.83;;;;;;;-0.74;100.00;101944.09;5052899;28;20056;-78
2023/12/07 03:42:20;;;;;;;247.73;50.67;;;;;;;-0.74;100.00;101950.09;5064815;28;20029;-79
2023/12/07 03:44:45;;;;;;;175.98;47.47;;;;;;;-0.76;100.00;101946.69;5045885;28;20404;-79
2023/12/07 03:47:11;;;;;;;203.60;50.53;;;;;;;-0.78;100.00;101948.44;5057879;28;20055;-78
2023/12/07 03:49:38;;;;;;;219.23;49.95;;;;;;;-0.77;100.00;101952.72;5046279;28;20096;-78
2023/12/07 03:52:04;;;;;;;332.92;59.67;;;;;;;-0.78;100.00;101961.34;5050499;28;20032;-77
2023/12/07 03:54:29;;;;;;;83.18;41.63;;;;;;;-0.69;100.00;101958.66;5041054;28;20078;-78
2023/12/07 03:56:55;;;;;;;212.90;49.10;;;;;;;-0.73;100.00;101959.56;5046529;28;20036;-78
2023/12/07 03:59:20;;;;;;;256.27;59.30;;;;;;;-0.71;100.00;101957.81;5047786;28;20057;-78
2023/12/07 04:01:45;;;;;;;78.60;42.97;;;;;;;-0.63;100.00;101962.91;5045509;28;20071;-78
2023/12/07 04:04:11;;;;;;;101.53;44.13;;;;;;;-0.63;100.00;101962.91;5047656;28;20046;-79
2023/12/07 04:06:36;;;;;;;180.68;51.47;;;;;;;-0.64;100.00;101967.22;5045357;28;20020;-79
2023/12/07 04:09:02;;;;;;;108.85;44.38;;;;;;;-0.62;100.00;101954.28;5044833;28;20516;-79
2023/12/07 04:11:30;;;;;;;232.05;54.28;;;;;;;-0.67;100.00;101951.75;5036676;28;20116;-78
2023/12/07 04:13:56;;;;;;;89.15;42.10;;;;;;;-0.63;100.00;101958.59;5038999;28;20576;-78
2023/12/07 04:16:21;;;;;;;71.32;40.83;;;;;;;-0.57;100.00;101959.41;5045535;28;20025;-78
2023/12/07 04:18:47;;;;;;;95.03;43.35;;;;;;;-0.56;100.00;101963.72;5048260;28;20029;-77
2023/12/07 04:21:12;;;;;;;217.35;52.13;;;;;;;-0.63;100.00;101968.09;5046037;28;20460;-78
2023/12/07 04:23:37;;;;;;;169.85;48.78;;;;;;;-0.63;100.00;101965.50;5045537;28;20061;-78
2023/12/07 04:26:03;;;;;;;197.25;48.53;;;;;;;-0.66;100.00;101973.28;5050279;28;20447;-78
2023/12/07 04:28:28;;;;;;;100.85;40.10;;;;;;;-0.64;100.00;101982.72;5050894;28;20028;-78
2023/12/07 04:30:54;;;;;;;118.65;42.70;;;;;;;-0.66;100.00;101978.44;5049357;28;20054;-79
2023/12/07 04:33:19;;;;;;;196.18;46.63;;;;;;;-0.70;100.00;101972.47;5032167;28;20421;-79
2023/12/07 04:35:45;;;;;;;243.00;53.88;;;;;;;-0.71;100.00;101973.31;5030674;28;20025;-79
2023/12/07 04:38:10;;;;;;;136.80;44.97;;;;;;;-0.69;100.00;101979.34;5032316;28;20156;-79
2023/12/07 04:40:35;;;;;;;172.20;47.65;;;;;;;-0.70;100.00;101982.78;5057720;28;20031;-79
2023/12/07 04:43:01;;;;;;;89.15;41.85;;;;;;;-0.66;100.00;101978.44;5059262;28;20021;-79
2023/12/07 04:45:26;;;;;;;185.45;46.22;;;;;;;-0.72;100.00;101976.78;5052420;28;20025;-79
2023/12/07 04:47:51;;;;;;;151.10;41.08;;;;;;;-0.71;100.00;101969.88;5045727;28;20112;-79
2023/12/07 04:50:17;;;;;;;162.60;44.70;;;;;;;-0.74;100.00;101965.59;5033339;28;20376;-79
2023/12/07 04:52:42;;;;;;;133.45;42.55;;;;;;;-0.73;100.00;101967.31;5031305;28;20068;-79
2023/12/07 04:55:08;;;;;;;173.75;43.42;;;;;;;-0.75;100.00;101966.47;5042986;28;20089;-79
2023/12/07 04:57:34;;;;;;;153.65;43.55;;;;;;;-0.74;100.00;101964.75;5047238;28;20025;-79
2023/12/07 05:00:00;;;;;;;110.38;41.30;;;;;;;-0.73;100.00;101967.31;5053389;28;20025;-78
2023/12/07 05:02:27;;;;;;;111.55;34.92;;;;;;;-0.71;100.00;101965.56;5042240;28;20603;-79
2023/12/07 05:04:53;;;;;;;163.25;38.25;;;;;;;-0.74;100.00;101955.28;5040039;28;20469;-78
2023/12/07 05:07:18;;;;;;;102.22;33.55;;;;;;;-0.70;100.00;101941.44;5033316;28;20029;-78
2023/12/07 05:09:43;;;;;;;191.57;39.00;;;;;;;-0.70;100.00;101940.59;5035468;28;20132;-79
2023/12/07 05:12:09;;;;;;;80.30;31.90;;;;;;;-0.66;100.00;101944.84;5049328;28;20484;-78
2023/12/07 05:14:37;;;;;;;144.77;38.00;;;;;;;-0.69;100.00;101938.00;5049028;28;20451;-78
2023/12/07 05:17:02;;;;;;;134.13;35.10;;;;;;;-0.65;100.00;101936.22;5046402;28;20530;-79
2023/12/07 05:19:28;;;;;;;82.30;33.00;;;;;;;-0.64;100.00;101938.78;5048861;28;20083;-76
2023/12/07 05:21:53;;;;;;;127.50;36.00;;;;;;;-0.61;100.00;101939.63;5050460;28;20025;-78
2023/12/07 05:24:18;;;;;;;109.47;34.65;;;;;;;-0.59;100.00;101943.06;5041461;28;20022;-78
2023/12/07 05:26:48;;;;;;;143.63;37.58;;;;;;;-0.59;100.00;101941.34;5043364;28;20075;-79
2023/12/07 05:29:14;;;;;;;156.45;39.33;;;;;;;-0.59;100.00;101940.47;5047294;28;20085;-79
2023/12/07 05:31:40;;;;;;;120.00;35.20;;;;;;;-0.58;100.00;101935.28;5047465;28;20123;-78
2023/12/07 05:34:06;;;;;;;132.13;37.20;;;;;;;-0.58;100.00;101939.59;5048101;28;20120;-78
2023/12/07 05:36:32;;;;;;;149.23;37.63;;;;;;;-0.56;100.00;101932.69;5048333;28;20079;-79
2023/12/07 05:39:00;;;;;;;195.40;42.15;;;;;;;-0.54;100.00;101942.13;5048502;28;20033;-79
2023/12/07 05:41:26;;;;;;;170.48;39.10;;;;;;;-0.54;100.00;101926.63;5041674;28;20515;-78
2023/12/07 05:43:52;;;;;;;158.95;39.15;;;;;;;-0.53;100.00;101930.94;5039299;28;20053;-79
2023/12/07 05:46:18;;;;;;;141.02;36.75;;;;;;;-0.52;100.00;101935.22;5029668;28;20028;-79
2023/12/07 05:48:44;;;;;;;129.57;36.33;;;;;;;-0.50;100.00;101927.44;5047498;28;20021;-79
2023/12/07 05:51:20;;;;;;;99.97;35.67;;;;;;;-0.47;100.00;101930.00;5050597;28;20046;-77
2023/12/07 05:53:45;;;;;;;178.05;39.97;;;;;;;-0.49;100.00;101929.16;5050464;28;20043;-78
2023/12/07 05:56:11;;;;;;;120.93;37.85;;;;;;;-0.46;100.00;101927.41;5050252;28;20525;-79
2023/12/07 05:58:37;;;;;;;109.20;35.83;;;;;;;-0.43;100.00;101924.78;5050794;28;20025;-79
2023/12/07 06:01:02;;;;;;;236.20;45.30;;;;;;;-0.47;100.00;101928.28;5054721;28;20473;-78
2023/12/07 06:03:29;;;;;;;135.48;37.40;;;;;;;-0.42;100.00;101930.81;5042559;28;20120;-77
2023/12/07 06:05:55;;;;;;;105.82;33.85;;;;;;;-0.43;100.00;101922.19;5048301;28;20025;-78
2023/12/07 06:08:21;;;;;;;142.07;35.92;;;;;;;-0.43;100.00;101923.91;5046491;28;20029;-78
2023/12/07 06:10:47;;;;;;;129.60;34.78;;;;;;;-0.42;100.00;101926.50;5048623;28;20509;-79
2023/12/07 06:13:13;;;;;;;109.38;34.05;;;;;;;-0.42;100.00;101931.66;5048361;28;20036;-79
2023/12/07 06:15:39;;;;;;;153.93;38.45;;;;;;;-0.40;100.00;101929.94;5046673;28;20020;-79
2023/12/07 06:18:05;;;;;;;134.75;36.20;;;;;;;-0.40;100.00;101923.88;5047000;28;20033;-79
2023/12/07 06:20:30;;;;;;;225.70;42.50;;;;;;;-0.39;100.00;101930.78;5047910;28;20028;-79
2023/12/07 06:22:55;;;;;;;92.28;32.40;;;;;;;-0.37;100.00;101926.47;5047945;28;20037;-79
2023/12/07 06:25:21;;;;;;;99.05;32.03;;;;;;;-0.34;100.00;101926.44;5046296;28;20032;-79
2023/12/07 06:27:46;;;;;;;158.43;36.45;;;;;;;-0.37;100.00;101929.91;5046865;28;20060;-79
2023/12/07 06:30:12;;;;;;;116.00;32.28;;;;;;;-0.35;100.00;101929.88;5048368;28;20485;-79
2023/12/07 06:32:38;;;;;;;96.90;31.48;;;;;;;-0.35;100.00;101932.47;5047447;28;20120;-78
2023/12/07 06:35:06;;;;;;;99.82;31.30;;;;;;;-0.34;100.00;101929.00;5045077;28;20032;-79
2023/12/07 06:37:32;;;;;;;87.72;30.73;;;;;;;-0.31;100.00;101931.56;5045175;28;20208;-79
2023/12/07 06:40:00;;;;;;;104.40;30.60;;;;;;;-0.32;100.00;101922.09;5054520;28;20068;-79
2023/12/07 06:42:26;;;;;;;89.68;30.77;;;;;;;-0.31;100.00;101916.03;5047864;28;20083;-79
2023/12/07 06:44:52;;;;;;;99.22;30.25;;;;;;;-0.30;100.00;101899.66;5046528;28;20032;-79
2023/12/07 06:47:18;;;;;;;103.60;31.67;;;;;;;-0.30;100.00;101899.66;5045459;28;20040;-79
2023/12/07 06:49:44;;;;;;;89.50;29.40;;;;;;;-0.28;100.00;101897.91;5048278;28;20057;-78
2023/12/07 06:52:10;;;;;;;122.50;29.73;;;;;;;-0.28;100.00;101892.72;5033919;28;20029;-78
2023/12/07 06:54:36;;;;;;;80.00;29.15;;;;;;;-0.27;100.00;101897.03;5035085;28;20038;-78
2023/12/07 06:57:01;;;;;;;105.82;32.17;;;;;;;-0.26;100.00;101900.47;5046975;28;20116;-78
2023/12/07 06:59:27;;;;;;;95.82;30.23;;;;;;;-0.26;100.00;101901.31;5047009;28;20060;-78
2023/12/07 07:01:52;;;;;;;87.28;29.38;;;;;;;-0.24;100.00;101902.16;5047227;28;20396;-78
2023/12/07 07:04:18;;;;;;;69.38;28.67;;;;;;;-0.23;100.00;101903.88;5046005;28;20037;-78
2023/12/07 07:06:44;;;;;;;93.55;31.08;;;;;;;-0.23;100.00;101900.44;5047883;28;20029;-79
2023/12/07 07:09:09;;;;;;;89.57;30.48;;;;;;;-0.22;100.00;101902.13;5046853;28;20047;-79
2023/12/07 07:11:34;;;;;;;69.38;29.70;;;;;;;-0.19;100.00;101915.88;5041923;28;20419;-78
2023/12/07 07:14:01;;;;;;;136.23;34.70;;;;;;;-0.21;100.00;101914.19;5043420;28;20394;-78
2023/12/07 07:16:26;;;;;;;83.68;30.95;;;;;;;-0.18;100.00;101915.00;5045815;28;20157;-79
2023/12/07 07:18:51;;;;;;;100.55;32.63;;;;;;;-0.15;100.00;101911.53;5046688;28;20017;-79
2023/12/07 07:21:19;;;;;;;75.53;31.92;;;;;;;-0.14;100.00;101914.09;5046869;28;20028;-79
2023/12/07 07:23:44;;;;;;;86.78;33.28;;;;;;;-0.13;100.00;101915.81;5045803;28;20021;-78
2023/12/07 07:26:10;;;;;;;103.43;35.03;;;;;;;-0.11;100.00;101911.47;5047097;28;20028;-78
2023/12/07 07:28:36;;;;;;;103.78;34.58;;;;;;;-0.11;100.00;101919.22;5047358;28;20041;-78
2023/12/07 07:31:02;;;;;;;74.65;33.97;;;;;;;-0.07;100.00;101926.06;5039166;28;20039;-79
2023/12/07 07:33:27;;;;;;;84.90;35.15;;;;;;;-0.04;100.00;101922.59;5047130;28;20059;-78
2023/12/07 07:35:53;;;;;;;92.43;36.13;;;;;;;-0.04;100.00;101923.44;5047248;28;20036;-78
2023/12/07 07:38:18;;;;;;;91.97;36.03;;;;;;;-0.04;100.00;101928.63;5045712;28;20107;-79
2023/12/07 07:40:45;;;;;;;90.38;36.70;;;;;;;-0.03;100.00;101940.66;5062894;28;20044;-79
2023/12/07 07:43:10;;;;;;;72.75;34.72;;;;;;;-0.01;100.00;101927.72;5049120;28;20468;-79
2023/12/07 07:45:36;;;;;;;87.60;36.33;;;;;;;0.01;100.00;101920.81;5047385;28;20036;-78
2023/12/07 07:48:01;;;;;;;89.82;36.85;;;;;;;0.03;100.00;101919.06;5041040;28;20045;-79
2023/12/07 07:50:28;;;;;;;88.10;38.30;;;;;;;0.03;100.00;101915.63;5036459;28;20116;-78
2023/12/07 07:52:54;;;;;;;107.28;38.85;;;;;;;0.04;100.00;101919.94;5028411;28;20093;-79
2023/12/07 07:55:20;;;;;;;82.28;37.05;;;;;;;0.09;100.00;101920.72;5009943;28;20024;-78
2023/12/07 07:57:45;;;;;;;91.57;38.20;;;;;;;0.10;100.00;101914.66;5028909;28;20405;-79
2023/12/07 08:00:13;;;;;;;99.82;38.13;;;;;;;0.10;100.00;101909.50;5040650;28;20671;-79
2023/12/07 08:02:38;;;;;;;82.88;37.67;;;;;;;0.15;100.00;101918.03;5052889;28;20060;-79
2023/12/07 08:05:04;;;;;;;94.72;38.33;;;;;;;0.15;100.00;101918.03;5051879;28;20057;-80
2023/12/07 08:07:29;;;;;;;79.47;37.28;;;;;;;0.17;100.00;101914.56;5039749;28;20041;-80
2023/12/07 08:09:55;;;;;;;96.18;39.33;;;;;;;0.18;100.00;101911.09;5044051;28;20045;-80
2023/12/07 08:12:22;;;;;;;97.43;39.13;;;;;;;0.20;100.00;101909.34;5047949;28;20060;-79
2023/12/07 08:14:48;;;;;;;86.43;39.35;;;;;;;0.23;100.00;101916.19;5035023;28;20029;-78
2023/12/07 08:17:14;;;;;;;89.38;39.63;;;;;;;0.21;100.00;101907.59;5045431;28;20043;-79
2023/12/07 08:19:42;;;;;;;77.25;36.70;;;;;;;0.21;100.00;101913.63;5048991;28;20040;-79
2023/12/07 08:22:07;;;;;;;66.57;35.38;;;;;;;0.20;100.00;101911.91;5046538;28;20020;-79
2023/12/07 08:24:33;;;;;;;67.90;34.83;;;;;;;0.23;100.00;101916.19;5052390;28;20029;-79
2023/12/07 08:26:59;;;;;;;69.30;34.45;;;;;;;0.23;100.00;101926.53;5050933;28;20044;-78
2023/12/07 08:29:24;;;;;;;68.93;34.55;;;;;;;0.20;100.00;101917.09;5041817;28;20766;-79
2023/12/07 08:31:49;;;;;;;70.00;34.78;;;;;;;0.21;100.00;101915.38;5047641;28;20108;-79
2023/12/07 08:34:18;;;;;;;74.53;36.75;;;;;;;0.23;100.00;101916.19;5051219;28;20036;-79
2023/12/07 08:36:43;;;;;;;66.88;36.45;;;;;;;0.26;100.00;101913.56;5048731;28;20028;-78
2023/12/07 08:39:09;;;;;;;70.65;36.50;;;;;;;0.27;100.00;101910.94;5055134;28;20546;-79
2023/12/07 08:41:36;;;;;;;61.08;34.97;;;;;;;0.28;100.00;101916.97;5047114;28;20032;-79
2023/12/07 08:44:01;;;;;;;60.67;34.75;;;;;;;0.27;100.00;101913.53;5049556;28;20028;-79
2023/12/07 08:46:30;;;;;;;57.63;32.42;;;;;;;0.29;100.00;101919.53;5046644;28;20358;-79
2023/12/07 08:48:56;;;;;;;61.25;33.42;;;;;;;0.30;100.00;101923.00;5048790;28;20468;-78
2023/12/07 08:51:21;;;;;;;67.50;35.28;;;;;;;0.29;100.00;101922.13;5050736;28;20040;-77
2023/12/07 08:53:47;;;;;;;67.57;35.97;;;;;;;0.33;100.00;101922.94;5048960;28;20114;-78
2023/12/07 08:56:18;;;;;;;65.68;34.90;;;;;;;0.35;100.00;101923.78;5047383;28;20029;-79
2023/12/07 08:58:44;;;;;;;61.67;34.85;;;;;;;0.41;100.00;101925.44;5047092;28;20116;-77
2023/12/07 09:01:09;;;;;;;64.35;34.88;;;;;;;0.40;100.00;101929.78;5050987;28;20059;-80
2023/12/07 09:03:35;;;;;;;67.97;35.72;;;;;;;0.40;100.00;101924.59;5044541;28;20539;-81
2023/12/07 09:06:01;;;;;;;66.53;35.35;;;;;;;0.42;100.00;101915.06;5047999;28;20078;-82
2023/12/07 09:08:26;;;;;;;61.63;35.78;;;;;;;0.45;100.00;101919.34;5045003;28;20429;-82
2023/12/07 09:10:52;;;;;;;62.38;35.42;;;;;;;0.46;100.00;101924.50;5044339;28;20519;-82
2023/12/07 09:13:18;;;;;;;67.82;37.13;;;;;;;0.47;100.00;101910.69;5047211;28;20028;-82
2023/12/07 09:15:44;;;;;;;68.68;37.55;;;;;;;0.52;100.00;101906.28;5047326;28;20041;-82
2023/12/07 09:18:10;;;;;;;74.25;39.72;;;;;;;0.54;100.00;101911.44;5044702;28;20083;-79
2023/12/07 09:20:37;;;;;;;67.55;36.95;;;;;;;0.56;100.00;101910.53;5044867;28;20033;-79
2023/12/07 09:23:04;;;;;;;66.93;37.60;;;;;;;0.61;100.00;101908.72;5042230;28;20037;-79
2023/12/07 09:25:30;;;;;;;67.82;38.40;;;;;;;0.61;100.00;101903.53;5037745;28;20028;-79
2023/12/07 09:27:56;;;;;;;69.45;37.97;;;;;;;0.66;100.00;101907.78;5048374;28;20029;-78
2023/12/07 09:30:22;;;;;;;74.35;39.60;;;;;;;0.68;100.00;101906.03;5045638;28;20083;-78
2023/12/07 09:32:47;;;;;;;75.85;39.42;;;;;;;0.72;100.00;101899.91;5049451;28;20540;-79
2023/12/07 09:35:19;;;;;;;71.00;39.13;;;;;;;0.78;100.00;101894.63;5048914;28;20025;-79
2023/12/07 09:37:45;;;;;;;71.97;40.50;;;;;;;0.81;100.00;101887.69;5049800;28;20086;-79
2023/12/07 09:40:21;;;;;;;78.82;41.38;;;;;;;0.87;100.00;101895.34;5049238;28;20529;-79
2023/12/07 09:42:47;;;;;;;77.30;41.78;;;;;;;0.92;100.00;101892.69;5033849;28;20394;-79
2023/12/07 09:45:19;;;;;;;73.65;41.83;;;;;;;0.96;100.00;101886.56;5049611;28;20031;-78
2023/12/07 09:47:50;;;;;;;69.95;40.15;;;;;;;1.04;100.00;101884.69;5050298;28;20051;-79
2023/12/07 09:50:23;;;;;;;66.95;39.15;;;;;;;1.06;100.00;101875.13;5048624;28;20037;-78
2023/12/07 09:52:50;;;;;;;63.58;39.35;;;;;;;1.09;100.00;101879.41;5033758;28;20090;-79
2023/12/07 09:55:17;;;;;;;56.97;37.63;;;;;;;1.15;100.00;101864.59;5044449;28;20059;-79
2023/12/07 09:57:42;;;;;;;66.47;40.63;;;;;;;1.29;100.00;101855.72;5046503;28;20074;-79
2023/12/07 10:00:10;;;;;;;56.20;37.95;;;;;;;1.37;100.00;101853.84;5051055;28;20029;-79
2023/12/07 10:02:38;;;;;;;57.35;37.25;;;;;;;1.38;100.00;101850.34;5046940;28;20033;-78
2023/12/07 10:05:19;;;;;;;49.75;34.60;;;;;;;1.37;100.00;101846.06;5047923;28;20477;-79
2023/12/07 10:07:48;;;;;;;45.05;34.20;;;;;;;1.38;100.00;101830.47;5038594;28;20028;-78
2023/12/07 10:10:14;;;;;;;43.17;32.78;;;;;;;1.42;100.00;101832.13;5042177;28;20057;-78
2023/12/07 10:12:50;;;;;;;41.63;32.58;;;;;;;1.50;100.00;101831.94;5045758;28;20036;-79
2023/12/07 10:15:17;;;;;;;42.03;32.95;;;;;;;1.52;100.00;101825.84;5039966;28;20045;-79
2023/12/07 10:17:47;;;;;;;38.63;29.63;;;;;;;1.51;100.00;101815.50;5047481;28;20069;-78
2023/12/07 10:20:14;;;;;;;37.25;29.58;;;;;;;1.52;100.00;101817.22;5028782;28;20024;-79
2023/12/07 10:22:41;;;;;;;35.55;28.77;;;;;;;1.53;100.00;101809.41;5047241;28;20028;-79
2023/12/07 10:25:07;;;;;;;37.33;30.05;;;;;;;1.54;100.00;101810.25;5047563;28;20032;-79
2023/12/07 10:27:33;;;;;;;37.63;29.08;;;;;;;1.60;100.00;101804.94;5047463;28;20028;-78
2023/12/07 10:29:59;;;;;;;36.92;29.98;;;;;;;1.67;100.00;101793.56;5049821;28;20423;-79
2023/12/07 10:32:26;;;;;;;34.22;29.00;;;;;;;1.73;100.00;101801.22;5034409;28;20029;-78
2023/12/07 10:34:53;;;;;;;34.90;28.90;;;;;;;1.75;100.00;101799.44;5047868;28;20025;-79
2023/12/07 10:37:18;;;;;;;35.33;28.48;;;;;;;1.82;100.00;101790.63;5042656;28;20044;-78
2023/12/07 10:39:44;;;;;;;34.53;28.20;;;;;;;1.85;100.00;101794.88;5039219;28;20033;-79
2023/12/07 10:42:11;;;;;;;31.88;27.20;;;;;;;1.87;100.00;101793.97;5045101;28;20024;-79
2023/12/07 10:44:42;;;;;;;31.73;25.92;;;;;;;1.89;100.00;101781.81;5047551;28;20083;-78
2023/12/07 10:47:10;;;;;;;31.33;27.25;;;;;;;1.89;100.00;101774.00;5045734;28;20392;-78
2023/12/07 10:49:40;;;;;;;30.65;25.95;;;;;;;1.93;100.00;101769.59;5047522;28;20033;-78
2023/12/07 10:52:13;;;;;;;33.13;27.80;;;;;;;1.99;100.00;101771.19;5046954;28;20033;-80
2023/12/07 10:54:51;;;;;;;30.02;25.63;;;;;;;2.03;100.00;101762.47;5043404;28;20037;-79
2023/12/07 10:57:19;;;;;;;30.30;25.77;;;;;;;2.05;100.00;101760.69;5037585;28;20096;-80